createdAt,value
2023-05-24T00:00:17.741Z,15.05
2023-05-24T00:01:19.647Z,15.05
2023-05-24T00:02:21.639Z,15.11
2023-05-24T00:03:23.944Z,15.14
2023-05-24T00:04:27.262Z,14.85
2023-05-24T00:05:30.369Z,14.92
2023-05-24T00:06:32.376Z,14.92
2023-05-24T00:07:34.252Z,14.85
2023-05-24T00:08:36.260Z,15.05
2023-05-24T00:09:38.293Z,15.05
2023-05-24T00:10:40.539Z,15.13
2023-05-24T00:11:42.913Z,14.98
2023-05-24T00:12:45.155Z,14.92
2023-05-24T00:13:47.742Z,14.96
2023-05-24T00:14:49.690Z,14.87
2023-05-24T00:15:52.158Z,14.88
2023-05-24T00:16:54.349Z,14.83
2023-05-24T00:17:56.420Z,14.84
2023-05-24T00:18:59.363Z,15.06
2023-05-24T00:20:01.531Z,15.08
2023-05-24T00:21:03.470Z,15.13
2023-05-24T00:22:05.489Z,15.13
2023-05-24T00:23:07.451Z,15.12
2023-05-24T00:24:09.495Z,15.17
2023-05-24T00:25:11.410Z,15.09
2023-05-24T00:26:14.665Z,15.05
2023-05-24T00:27:17.098Z,15.04
2023-05-24T00:28:18.984Z,15.10
2023-05-24T00:29:20.888Z,14.97
2023-05-24T00:30:22.981Z,15.03
2023-05-24T00:31:25.044Z,15.12
2023-05-24T00:32:27.309Z,15.06
2023-05-24T00:33:29.263Z,15.03
2023-05-24T00:34:31.228Z,15.06
2023-05-24T00:35:33.116Z,14.93
2023-05-24T00:36:35.141Z,14.92
2023-05-24T00:37:37.123Z,15.02
2023-05-24T00:38:39.000Z,15.05
2023-05-24T00:39:41.021Z,15.09
2023-05-24T00:40:43.191Z,15.07
2023-05-24T00:41:45.397Z,15.03
2023-05-24T00:42:47.404Z,14.96
2023-05-24T00:43:49.327Z,14.94
2023-05-24T00:44:51.231Z,14.92
2023-05-24T00:47:10.243Z,15.08
2023-05-24T00:48:13.511Z,14.95
2023-05-24T00:49:15.469Z,14.97
2023-05-24T00:50:18.487Z,15.00
2023-05-24T00:51:21.578Z,15.00
2023-05-24T00:52:23.585Z,14.64
2023-05-24T00:53:25.452Z,14.56
2023-05-24T00:54:28.867Z,14.87
2023-05-24T00:55:31.762Z,14.87
2023-05-24T00:56:35.047Z,15.00
2023-05-24T00:57:37.362Z,15.02
2023-05-24T00:58:39.649Z,14.99
2023-05-24T00:59:42.321Z,15.00
2023-05-24T01:00:47.113Z,15.01
2023-05-24T01:01:49.780Z,14.98
2023-05-24T01:02:51.809Z,15.03
2023-05-24T01:03:54.866Z,15.03
2023-05-24T01:04:57.813Z,14.99
2023-05-24T01:06:02.621Z,14.99
2023-05-24T01:07:14.316Z,14.93
2023-05-24T01:08:40.135Z,14.90
2023-05-24T01:11:36.915Z,14.84
2023-05-24T01:14:18.426Z,14.95
2023-05-24T01:15:41.208Z,14.93
2023-05-24T01:16:55.872Z,14.86
2023-05-24T01:18:23.161Z,14.81
2023-05-24T01:19:52.288Z,14.62
2023-05-24T01:21:07.519Z,14.62
2023-05-24T01:22:25.608Z,14.56
2023-05-24T01:23:34.384Z,14.46
2023-05-24T01:24:42.937Z,14.44
2023-05-24T01:26:04.123Z,14.53
2023-05-24T01:27:08.211Z,14.50
2023-05-24T01:28:11.649Z,14.33
2023-05-24T01:29:15.100Z,14.45
2023-05-24T01:30:18.277Z,14.53
2023-05-24T01:31:21.538Z,14.74
2023-05-24T01:32:24.037Z,14.84
2023-05-24T01:33:26.539Z,14.92
2023-05-24T01:34:29.310Z,14.86
2023-05-24T01:35:31.334Z,14.82
2023-05-24T01:36:33.523Z,14.62
2023-05-24T01:37:35.395Z,14.75
2023-05-24T01:38:38.546Z,14.48
2023-05-24T01:39:41.075Z,14.67
2023-05-24T01:40:45.723Z,14.70
2023-05-24T01:42:13.088Z,14.60
2023-05-24T01:43:18.864Z,14.79
2023-05-24T01:44:54.620Z,14.78
2023-05-24T01:46:11.927Z,14.80
2023-05-24T01:47:26.947Z,14.78
2023-05-24T01:48:48.116Z,14.58
2023-05-24T01:49:53.910Z,14.56
2023-05-24T01:50:58.433Z,14.41
2023-05-24T01:52:04.237Z,14.38
2023-05-24T01:53:09.980Z,14.56
2023-05-24T01:54:13.848Z,14.71
2023-05-24T01:55:17.832Z,14.76
2023-05-24T01:56:20.520Z,14.75
2023-05-24T01:57:26.262Z,14.69
2023-05-24T01:58:30.293Z,14.65
2023-05-24T01:59:33.480Z,14.57
2023-05-24T02:00:37.919Z,14.77
2023-05-24T02:01:41.280Z,14.82
2023-05-24T02:02:44.366Z,14.99
2023-05-24T02:03:46.988Z,14.95
2023-05-24T02:04:50.461Z,14.88
2023-05-24T02:05:52.368Z,14.83
2023-05-24T02:06:54.477Z,14.81
2023-05-24T02:07:57.591Z,14.84
2023-05-24T02:08:59.524Z,14.88
2023-05-24T02:10:01.629Z,14.97
2023-05-24T02:11:03.515Z,14.88
2023-05-24T02:12:06.727Z,14.86
2023-05-24T02:13:08.970Z,14.88
2023-05-24T02:14:10.971Z,14.82
2023-05-24T02:15:12.866Z,14.89
2023-05-24T02:16:14.990Z,14.72
2023-05-24T02:17:17.988Z,14.70
2023-05-24T02:18:20.124Z,14.47
2023-05-24T02:19:22.024Z,14.72
2023-05-24T02:20:24.027Z,14.76
2023-05-24T02:21:27.830Z,14.76
2023-05-24T02:22:29.862Z,14.74
2023-05-24T02:23:31.894Z,14.78
2023-05-24T02:24:34.856Z,14.82
2023-05-24T02:25:37.109Z,14.67
2023-05-24T02:26:39.320Z,14.72
2023-05-24T02:27:41.642Z,14.81
2023-05-24T02:28:44.074Z,14.93
2023-05-24T02:29:46.160Z,14.96
2023-05-24T02:30:48.250Z,14.96
2023-05-24T02:31:50.370Z,14.96
2023-05-24T02:32:52.277Z,14.67
2023-05-24T02:33:55.603Z,14.86
2023-05-24T02:34:58.312Z,14.78
2023-05-24T02:36:00.515Z,14.81
2023-05-24T02:37:02.567Z,14.72
2023-05-24T02:38:04.469Z,14.50
2023-05-24T02:39:06.602Z,14.68
2023-05-24T02:40:10.327Z,14.73
2023-05-24T02:41:12.352Z,14.84
2023-05-24T02:42:14.390Z,14.93
2023-05-24T02:43:16.579Z,14.94
2023-05-24T02:44:18.916Z,14.94
2023-05-24T02:45:20.843Z,14.96
2023-05-24T02:46:22.883Z,15.04
2023-05-24T02:47:24.888Z,15.01
2023-05-24T02:48:26.877Z,15.04
2023-05-24T02:49:28.887Z,15.02
2023-05-24T02:50:31.154Z,15.01
2023-05-24T02:51:33.054Z,14.96
2023-05-24T02:52:35.154Z,14.89
2023-05-24T02:53:37.194Z,14.98
2023-05-24T02:54:39.947Z,15.01
2023-05-24T02:55:42.160Z,15.03
2023-05-24T02:56:44.366Z,15.09
2023-05-24T02:57:47.313Z,15.04
2023-05-24T02:58:50.467Z,15.13
2023-05-24T02:59:52.365Z,15.11
2023-05-24T03:00:54.758Z,15.16
2023-05-24T03:01:56.739Z,15.18
2023-05-24T03:02:58.846Z,15.08
2023-05-24T03:04:01.668Z,15.15
2023-05-24T03:05:04.872Z,15.12
2023-05-24T03:06:07.303Z,15.10
2023-05-24T03:07:09.334Z,15.09
2023-05-24T03:08:11.345Z,15.18
2023-05-24T03:09:13.297Z,15.24
2023-05-24T03:10:16.115Z,15.25
2023-05-24T03:11:18.240Z,15.19
2023-05-24T03:12:20.230Z,15.19
2023-05-24T03:13:22.133Z,15.17
2023-05-24T03:14:24.160Z,15.24
2023-05-24T03:15:26.196Z,15.27
2023-05-24T03:16:28.241Z,15.23
2023-05-24T03:17:30.261Z,15.17
2023-05-24T03:18:32.435Z,15.18
2023-05-24T03:19:35.062Z,15.24
2023-05-24T03:20:37.213Z,15.12
2023-05-24T03:21:39.249Z,15.22
2023-05-24T03:22:41.553Z,15.41
2023-05-24T03:23:43.598Z,15.42
2023-05-24T03:24:46.456Z,15.43
2023-05-24T03:25:48.456Z,15.40
2023-05-24T03:26:51.680Z,15.32
2023-05-24T03:27:53.596Z,15.45
2023-05-24T03:28:55.584Z,15.40
2023-05-24T03:29:57.676Z,15.49
2023-05-24T03:30:59.673Z,15.49
2023-05-24T03:32:01.772Z,15.53
2023-05-24T03:33:03.822Z,15.47
2023-05-24T03:34:05.757Z,15.56
2023-05-24T03:35:08.479Z,15.58
2023-05-24T03:36:10.900Z,15.64
2023-05-24T03:37:12.789Z,15.54
2023-05-24T03:38:14.687Z,15.55
2023-05-24T03:39:16.576Z,15.52
2023-05-24T03:40:18.662Z,15.69
2023-05-24T03:41:20.573Z,15.70
2023-05-24T03:42:22.604Z,15.72
2023-05-24T03:43:25.318Z,15.77
2023-05-24T03:44:27.314Z,15.67
2023-05-24T03:45:38.712Z,15.63
2023-05-24T03:46:33.283Z,15.60
2023-05-24T03:47:35.370Z,15.79
2023-05-24T03:48:37.429Z,15.80
2023-05-24T03:49:39.306Z,15.47
2023-05-24T03:50:41.435Z,15.45
2023-05-24T03:51:43.890Z,15.55
2023-05-24T03:52:46.522Z,15.18
2023-05-24T03:53:48.571Z,15.21
2023-05-24T03:54:50.478Z,15.30
2023-05-24T03:55:52.364Z,15.33
2023-05-24T03:56:54.350Z,15.37
2023-05-24T03:57:56.277Z,15.28
2023-05-24T03:58:58.621Z,15.35
2023-05-24T04:00:00.508Z,15.50
2023-05-24T04:01:02.388Z,15.42
2023-05-24T04:02:04.618Z,15.53
2023-05-24T04:03:06.827Z,15.47
2023-05-24T04:04:08.946Z,15.51
2023-05-24T04:05:12.831Z,15.59
2023-05-24T04:06:17.553Z,15.48
2023-05-24T04:07:19.603Z,15.59
2023-05-24T04:08:21.530Z,15.66
2023-05-24T04:09:24.259Z,15.53
2023-05-24T04:10:26.520Z,15.54
2023-05-24T04:11:28.692Z,15.63
2023-05-24T04:12:30.930Z,15.65
2023-05-24T04:13:32.944Z,15.70
2023-05-24T04:14:34.963Z,15.63
2023-05-24T04:15:37.032Z,15.79
2023-05-24T04:16:39.040Z,15.81
2023-05-24T04:17:42.365Z,15.90
2023-05-24T04:18:45.310Z,15.87
2023-05-24T04:19:47.369Z,15.35
2023-05-24T04:20:49.547Z,15.42
2023-05-24T04:21:51.556Z,15.81
2023-05-24T04:22:53.706Z,15.81
2023-05-24T04:23:55.588Z,15.98
2023-05-24T04:24:57.584Z,16.07
2023-05-24T04:25:59.663Z,15.74
2023-05-24T04:27:02.076Z,15.54
2023-05-24T04:28:04.296Z,15.56
2023-05-24T04:29:06.187Z,15.65
2023-05-24T04:30:09.269Z,15.54
2023-05-24T04:31:11.202Z,15.81
2023-05-24T04:32:13.258Z,15.96
2023-05-24T04:33:15.136Z,15.68
2023-05-24T04:34:17.632Z,15.75
2023-05-24T04:35:19.550Z,15.86
2023-05-24T04:36:21.618Z,15.93
2023-05-24T04:37:23.650Z,15.58
2023-05-24T04:38:25.553Z,15.33
2023-05-24T04:39:29.620Z,15.33
2023-05-24T04:40:31.759Z,15.58
2023-05-24T04:41:33.981Z,15.68
2023-05-24T04:42:36.031Z,15.72
2023-05-24T04:43:37.948Z,15.81
2023-05-24T04:44:40.412Z,15.87
2023-05-24T04:45:42.336Z,16.00
2023-05-24T04:46:44.498Z,16.00
2023-05-24T04:47:46.746Z,15.87
2023-05-24T04:48:48.816Z,16.22
2023-05-24T04:49:51.278Z,16.33
2023-05-24T04:50:55.383Z,16.23
2023-05-24T04:51:57.828Z,16.53
2023-05-24T04:52:59.921Z,16.33
2023-05-24T04:54:01.911Z,16.30
2023-05-24T04:55:05.139Z,16.44
2023-05-24T04:56:07.505Z,16.44
2023-05-24T04:57:10.055Z,16.47
2023-05-24T04:58:12.047Z,16.72
2023-05-24T04:59:14.051Z,17.08
2023-05-24T05:00:17.231Z,17.42
2023-05-24T05:01:19.795Z,17.59
2023-05-24T05:02:22.025Z,17.84
2023-05-24T05:03:24.186Z,17.98
2023-05-24T05:04:26.197Z,18.08
2023-05-24T05:05:28.331Z,18.08
2023-05-24T05:06:30.339Z,18.15
2023-05-24T05:07:32.465Z,18.14
2023-05-24T05:08:34.376Z,17.78
2023-05-24T05:09:36.404Z,17.94
2023-05-24T05:10:38.507Z,17.81
2023-05-24T05:11:40.913Z,17.97
2023-05-24T05:12:42.936Z,18.10
2023-05-24T05:13:45.054Z,18.36
2023-05-24T05:14:47.081Z,18.68
2023-05-24T05:15:49.143Z,18.97
2023-05-24T05:16:51.410Z,19.19
2023-05-24T05:17:53.377Z,19.37
2023-05-24T05:18:55.426Z,19.41
2023-05-24T05:19:57.462Z,19.43
2023-05-24T05:21:00.146Z,19.14
2023-05-24T05:22:02.177Z,19.15
2023-05-24T05:23:04.175Z,19.03
2023-05-24T05:24:06.085Z,19.29
2023-05-24T05:25:08.512Z,19.34
2023-05-24T05:26:11.181Z,19.43
2023-05-24T05:27:13.097Z,19.48
2023-05-24T05:28:15.039Z,19.45
2023-05-24T05:29:17.076Z,19.08
2023-05-24T05:30:19.076Z,19.23
2023-05-24T05:31:23.394Z,19.37
2023-05-24T05:32:25.399Z,19.73
2023-05-24T05:33:30.111Z,20.08
2023-05-24T05:34:32.247Z,20.07
2023-05-24T05:35:34.297Z,20.00
2023-05-24T05:36:37.665Z,20.53
2023-05-24T05:37:39.694Z,20.87
2023-05-24T05:38:41.763Z,21.14
2023-05-24T05:39:43.777Z,21.23
2023-05-24T05:40:45.903Z,21.23
2023-05-24T05:41:47.801Z,21.26
2023-05-24T05:42:49.814Z,21.37
2023-05-24T05:43:51.696Z,21.57
2023-05-24T05:44:53.680Z,21.66
2023-05-24T05:45:55.590Z,21.67
2023-05-24T05:46:58.179Z,22.00
2023-05-24T05:48:00.363Z,22.00
2023-05-24T05:49:02.356Z,21.97
2023-05-24T05:50:05.524Z,22.13
2023-05-24T05:51:07.593Z,22.12
2023-05-24T05:52:09.524Z,22.15
2023-05-24T05:53:11.601Z,21.91
2023-05-24T05:54:13.520Z,22.01
2023-05-24T05:55:15.872Z,22.15
2023-05-24T05:56:17.850Z,22.39
2023-05-24T05:57:19.736Z,22.62
2023-05-24T05:58:21.806Z,22.83
2023-05-24T05:59:23.697Z,22.94
2023-05-24T06:00:25.702Z,22.84
2023-05-24T06:01:27.785Z,23.18
2023-05-24T06:02:29.815Z,23.42
2023-05-24T06:03:31.926Z,23.53
2023-05-24T06:04:34.335Z,23.72
2023-05-24T06:05:36.373Z,23.62
2023-05-24T06:06:38.344Z,23.52
2023-05-24T06:07:40.246Z,23.46
2023-05-24T06:08:42.131Z,23.55
2023-05-24T06:09:44.408Z,23.56
2023-05-24T06:10:46.740Z,23.73
2023-05-24T06:11:48.645Z,23.83
2023-05-24T06:12:50.622Z,24.10
2023-05-24T06:13:53.374Z,24.18
2023-05-24T06:14:55.266Z,24.35
2023-05-24T06:15:57.402Z,24.40
2023-05-24T06:17:00.405Z,24.55
2023-05-24T06:18:02.772Z,24.30
2023-05-24T06:19:06.679Z,24.64
2023-05-24T06:20:10.490Z,24.84
2023-05-24T06:21:14.864Z,25.00
2023-05-24T06:22:17.079Z,25.15
2023-05-24T06:23:18.961Z,25.16
2023-05-24T06:24:20.915Z,24.40
2023-05-24T06:25:23.130Z,24.48
2023-05-24T06:26:25.133Z,24.89
2023-05-24T06:27:27.019Z,25.12
2023-05-24T06:28:28.898Z,25.44
2023-05-24T06:29:30.923Z,25.72
2023-05-24T06:30:33.298Z,25.80
2023-05-24T06:31:35.527Z,25.84
2023-05-24T06:32:37.521Z,26.21
2023-05-24T06:33:42.693Z,25.72
2023-05-24T06:34:43.964Z,25.56
2023-05-24T06:35:45.985Z,25.17
2023-05-24T06:36:48.276Z,25.73
2023-05-24T06:37:50.173Z,25.97
2023-05-24T06:38:52.452Z,26.24
2023-05-24T06:39:54.407Z,26.03
2023-05-24T06:40:56.378Z,26.27
2023-05-24T06:41:58.255Z,26.41
2023-05-24T06:43:00.161Z,26.58
2023-05-24T06:44:02.236Z,25.53
2023-05-24T06:45:06.045Z,25.26
2023-05-24T06:46:08.388Z,25.18
2023-05-24T06:47:10.332Z,25.27
2023-05-24T06:48:12.359Z,25.50
2023-05-24T06:49:14.416Z,25.87
2023-05-24T06:50:17.334Z,25.98
2023-05-24T06:51:19.254Z,26.18
2023-05-24T06:52:21.253Z,26.29
2023-05-24T06:53:23.390Z,25.79
2023-05-24T06:54:25.394Z,25.62
2023-05-24T06:55:27.564Z,26.02
2023-05-24T06:56:29.804Z,26.48
2023-05-24T06:57:31.852Z,26.80
2023-05-24T06:58:33.744Z,26.87
2023-05-24T06:59:35.665Z,27.15
2023-05-24T07:00:37.797Z,27.28
2023-05-24T07:01:40.147Z,27.16
2023-05-24T07:02:42.481Z,27.38
2023-05-24T07:03:44.698Z,27.12
2023-05-24T07:04:46.731Z,27.18
2023-05-24T07:05:48.819Z,27.22
2023-05-24T07:06:51.927Z,27.11
2023-05-24T07:07:55.149Z,27.06
2023-05-24T07:08:57.695Z,27.05
2023-05-24T07:09:59.628Z,27.24
2023-05-24T07:11:01.666Z,27.39
2023-05-24T07:12:04.682Z,26.93
2023-05-24T07:13:08.004Z,27.21
2023-05-24T07:14:10.025Z,27.36
2023-05-24T07:15:12.026Z,27.46
2023-05-24T07:16:14.246Z,27.46
2023-05-24T07:17:16.377Z,27.52
2023-05-24T07:18:18.651Z,27.55
2023-05-24T07:19:20.632Z,27.75
2023-05-24T07:20:22.824Z,27.80
2023-05-24T07:21:25.011Z,27.94
2023-05-24T07:22:26.910Z,27.94
2023-05-24T07:23:28.961Z,27.65
2023-05-24T07:24:30.907Z,27.72
2023-05-24T07:25:33.231Z,27.56
2023-05-24T07:26:35.465Z,27.63
2023-05-24T07:27:37.645Z,27.53
2023-05-24T07:28:39.656Z,27.53
2023-05-24T07:29:41.692Z,27.50
2023-05-24T07:30:45.290Z,27.07
2023-05-24T07:31:47.298Z,27.02
2023-05-24T07:32:49.841Z,27.00
2023-05-24T07:33:51.840Z,27.13
2023-05-24T07:34:54.041Z,26.46
2023-05-24T07:35:56.080Z,25.70
2023-05-24T07:36:58.330Z,25.56
2023-05-24T07:38:00.331Z,25.98
2023-05-24T07:39:02.261Z,26.17
2023-05-24T07:40:05.861Z,26.46
2023-05-24T07:41:07.875Z,26.41
2023-05-24T07:42:09.782Z,26.45
2023-05-24T07:43:11.787Z,26.20
2023-05-24T07:44:13.925Z,26.08
2023-05-24T07:45:15.879Z,26.00
2023-05-24T07:46:18.237Z,25.97
2023-05-24T07:47:20.197Z,26.25
2023-05-24T07:48:22.905Z,26.60
2023-05-24T07:49:24.827Z,26.92
2023-05-24T07:50:27.036Z,27.09
2023-05-24T07:51:28.952Z,27.18
2023-05-24T07:52:30.852Z,27.18
2023-05-24T07:53:32.834Z,26.63
2023-05-24T07:54:34.714Z,25.85
2023-05-24T07:55:36.709Z,26.46
2023-05-24T07:56:41.420Z,26.99
2023-05-24T07:57:43.356Z,27.05
2023-05-24T07:58:45.347Z,26.99
2023-05-24T07:59:47.253Z,26.94
2023-05-24T08:00:49.254Z,27.07
2023-05-24T08:01:51.168Z,27.13
2023-05-24T08:02:53.236Z,26.97
2023-05-24T08:03:56.478Z,26.60
2023-05-24T08:04:58.630Z,26.49
2023-05-24T08:06:00.548Z,26.50
2023-05-24T08:07:02.892Z,26.47
2023-05-24T08:08:05.088Z,25.92
2023-05-24T08:09:07.383Z,25.01
2023-05-24T08:10:10.191Z,24.92
2023-05-24T08:11:12.094Z,25.03
2023-05-24T08:12:16.952Z,25.37
2023-05-24T08:13:17.820Z,24.96
2023-05-24T08:14:19.842Z,25.13
2023-05-24T08:15:22.164Z,25.12
2023-05-24T08:16:24.238Z,25.23
2023-05-24T08:17:27.140Z,25.02
2023-05-24T08:18:29.137Z,24.87
2023-05-24T08:19:31.027Z,25.00
2023-05-24T08:20:33.227Z,24.86
2023-05-24T08:21:35.598Z,24.70
2023-05-24T08:22:37.524Z,24.58
2023-05-24T08:23:39.610Z,24.46
2023-05-24T08:24:41.477Z,24.64
2023-05-24T08:25:43.573Z,24.45
2023-05-24T08:26:45.966Z,24.56
2023-05-24T08:27:49.073Z,24.39
2023-05-24T08:28:51.415Z,24.41
2023-05-24T08:29:56.816Z,24.37
2023-05-24T08:30:58.272Z,24.52
2023-05-24T08:32:00.215Z,24.55
2023-05-24T08:33:02.782Z,24.58
2023-05-24T08:34:05.182Z,24.33
2023-05-24T08:35:19.149Z,24.36
2023-05-24T08:36:11.380Z,24.45
2023-05-24T08:37:15.500Z,24.52
2023-05-24T08:38:17.946Z,24.13
2023-05-24T08:39:19.963Z,24.08
2023-05-24T08:40:21.970Z,24.15
2023-05-24T08:41:24.251Z,24.10
2023-05-24T08:42:28.096Z,24.41
2023-05-24T08:43:32.615Z,24.30
2023-05-24T08:44:41.119Z,24.36
2023-05-24T08:45:44.912Z,24.44
2023-05-24T08:46:48.262Z,24.94
2023-05-24T08:47:51.322Z,25.38
2023-05-24T08:48:56.693Z,25.21
2023-05-24T08:50:00.048Z,24.63
2023-05-24T08:51:03.007Z,24.80
2023-05-24T08:52:05.738Z,24.54
2023-05-24T08:53:09.562Z,24.45
2023-05-24T08:54:13.330Z,24.38
2023-05-24T08:55:16.277Z,24.06
2023-05-24T08:56:18.608Z,24.03
2023-05-24T08:57:21.847Z,24.10
2023-05-24T08:58:24.238Z,24.13
2023-05-24T08:59:26.237Z,24.15
2023-05-24T09:00:28.214Z,24.08
2023-05-24T09:01:32.214Z,23.81
2023-05-24T09:02:35.844Z,24.05
2023-05-24T09:03:41.213Z,24.08
2023-05-24T09:04:45.605Z,24.26
2023-05-24T09:05:47.904Z,24.24
2023-05-24T09:06:51.612Z,24.04
2023-05-24T09:07:56.364Z,23.92
2023-05-24T09:09:00.124Z,24.16
2023-05-24T09:10:07.870Z,24.08
2023-05-24T09:11:11.048Z,24.00
2023-05-24T09:12:21.759Z,23.87
2023-05-24T09:13:23.092Z,23.84
2023-05-24T09:14:25.273Z,23.80
2023-05-24T09:15:28.457Z,23.95
2023-05-24T09:16:32.146Z,23.90
2023-05-24T09:17:35.859Z,23.94
2023-05-24T09:18:39.876Z,24.12
2023-05-24T09:19:45.686Z,24.42
2023-05-24T09:20:49.947Z,24.08
2023-05-24T09:21:53.146Z,24.06
2023-05-24T09:22:56.227Z,24.21
2023-05-24T09:23:58.978Z,24.40
2023-05-24T09:25:02.548Z,24.42
2023-05-24T09:26:08.755Z,24.56
2023-05-24T09:27:10.683Z,24.71
2023-05-24T09:28:14.894Z,24.82
2023-05-24T09:30:30.236Z,25.01
2023-05-24T09:31:34.052Z,24.78
2023-05-24T09:32:36.178Z,25.06
2023-05-24T09:33:39.005Z,25.21
2023-05-24T09:34:42.706Z,25.30
2023-05-24T09:35:44.766Z,25.36
2023-05-24T09:36:46.997Z,25.34
2023-05-24T09:37:48.882Z,25.26
2023-05-24T09:39:09.298Z,25.26
2023-05-24T09:41:28.419Z,25.03
2023-05-24T09:42:30.338Z,25.27
2023-05-24T09:43:34.063Z,25.07
2023-05-24T09:44:35.974Z,25.57
2023-05-24T09:45:44.489Z,25.90
2023-05-24T09:46:46.605Z,26.11
2023-05-24T09:47:48.671Z,26.22
2023-05-24T09:49:01.173Z,26.34
2023-05-24T09:50:05.596Z,26.38
2023-05-24T09:51:08.203Z,26.47
2023-05-24T09:52:15.619Z,25.63
2023-05-24T09:53:17.671Z,25.27
2023-05-24T09:54:20.181Z,25.71
2023-05-24T09:55:23.234Z,25.89
2023-05-24T09:56:26.506Z,25.83
2023-05-24T09:57:28.562Z,25.24
2023-05-24T09:58:31.631Z,25.22
2023-05-24T09:59:33.939Z,24.99
2023-05-24T10:00:42.089Z,24.73
2023-05-24T10:01:44.947Z,24.58
2023-05-24T10:03:02.261Z,24.47
2023-05-24T10:04:06.883Z,24.49
2023-05-24T10:05:10.260Z,24.17
2023-05-24T10:06:12.788Z,24.24
2023-05-24T10:07:17.302Z,24.06
2023-05-24T10:08:20.644Z,24.25
2023-05-24T10:09:22.761Z,24.49
2023-05-24T10:10:30.525Z,24.42
2023-05-24T10:11:34.494Z,24.63
2023-05-24T10:12:37.213Z,24.54
2023-05-24T10:13:39.656Z,24.76
2023-05-24T10:14:42.588Z,24.86
2023-05-24T10:15:44.483Z,25.24
2023-05-24T10:16:46.679Z,25.15
2023-05-24T10:17:48.833Z,24.61
2023-05-24T10:18:50.985Z,24.39
2023-05-24T10:19:53.113Z,24.46
2023-05-24T10:20:56.610Z,24.42
2023-05-24T10:22:00.660Z,24.07
2023-05-24T10:23:06.409Z,24.14
2023-05-24T10:24:10.861Z,24.17
2023-05-24T10:26:29.167Z,23.68
2023-05-24T10:27:32.406Z,23.95
2023-05-24T10:28:38.126Z,23.84
2023-05-24T10:29:56.048Z,23.84
2023-05-24T10:31:13.802Z,23.70
2023-05-24T10:32:18.949Z,23.71
2023-05-24T10:33:23.296Z,23.79
2023-05-24T10:34:25.978Z,23.76
2023-05-24T10:35:29.809Z,23.66
2023-05-24T10:36:33.125Z,23.66
2023-05-24T10:37:35.083Z,23.59
2023-05-24T10:38:38.508Z,23.71
2023-05-24T10:39:41.674Z,24.05
2023-05-24T10:40:43.931Z,24.09
2023-05-24T10:41:45.849Z,24.49
2023-05-24T10:42:48.418Z,24.58
2023-05-24T10:44:07.814Z,24.75
2023-05-24T10:44:56.475Z,24.49
2023-05-24T10:45:58.551Z,24.25
2023-05-24T10:47:12.399Z,24.26
2023-05-24T10:48:18.100Z,24.61
2023-05-24T10:49:22.677Z,24.60
2023-05-24T10:50:24.905Z,24.47
2023-05-24T10:51:34.240Z,24.36
2023-05-24T10:52:36.750Z,24.41
2023-05-24T10:53:38.913Z,24.49
2023-05-24T10:55:04.029Z,24.42
2023-05-24T10:56:08.455Z,24.60
2023-05-24T10:57:10.534Z,24.50
2023-05-24T10:58:12.421Z,24.43
2023-05-24T10:59:24.041Z,24.66
2023-05-24T11:00:35.395Z,24.70
2023-05-24T11:01:32.748Z,24.87
2023-05-24T11:02:34.896Z,24.87
2023-05-24T11:03:40.466Z,25.09
2023-05-24T11:04:45.918Z,25.01
2023-05-24T11:05:51.041Z,25.13
2023-05-24T11:06:59.306Z,24.88
2023-05-24T11:08:01.900Z,24.85
2023-05-24T11:09:07.661Z,24.95
2023-05-24T11:10:14.953Z,25.03
2023-05-24T11:11:26.767Z,24.67
2023-05-24T11:12:28.315Z,24.76
2023-05-24T11:13:32.472Z,24.78
2023-05-24T11:14:37.452Z,24.78
2023-05-24T11:15:41.550Z,24.74
2023-05-24T11:16:45.706Z,24.82
2023-05-24T11:18:10.183Z,24.84
2023-05-24T11:19:23.311Z,25.11
2023-05-24T11:20:25.790Z,24.94
2023-05-24T11:21:28.044Z,24.99
2023-05-24T11:22:30.384Z,24.81
2023-05-24T11:23:33.176Z,24.97
2023-05-24T11:24:36.208Z,24.93
2023-05-24T11:25:38.389Z,24.91
2023-05-24T11:26:40.645Z,24.88
2023-05-24T11:27:44.989Z,24.82
2023-05-24T11:28:48.105Z,24.78
2023-05-24T11:29:51.257Z,24.59
2023-05-24T11:30:53.280Z,24.59
2023-05-24T11:31:59.622Z,24.60
2023-05-24T11:33:01.664Z,24.59
2023-05-24T11:34:03.741Z,24.64
2023-05-24T11:35:06.778Z,24.83
2023-05-24T11:36:09.725Z,24.68
2023-05-24T11:37:14.588Z,24.51
2023-05-24T11:38:17.048Z,24.62
2023-05-24T11:39:18.967Z,24.85
2023-05-24T11:40:21.138Z,24.79
2023-05-24T11:41:23.249Z,24.95
2023-05-24T11:42:27.852Z,24.99
2023-05-24T11:43:30.225Z,24.97
2023-05-24T11:44:33.607Z,25.05
2023-05-24T11:45:36.324Z,25.03
2023-05-24T11:46:39.736Z,24.81
2023-05-24T11:47:42.165Z,24.69
2023-05-24T11:48:56.622Z,24.78
2023-05-24T11:49:58.745Z,24.67
2023-05-24T11:51:00.747Z,24.51
2023-05-24T11:52:03.103Z,24.55
2023-05-24T11:53:05.024Z,24.71
2023-05-24T11:54:07.422Z,24.69
2023-05-24T11:55:14.969Z,24.85
2023-05-24T11:56:16.612Z,25.09
2023-05-24T11:57:22.954Z,25.13
2023-05-24T11:58:31.586Z,25.06
2023-05-24T11:59:33.548Z,25.08
2023-05-24T12:00:35.643Z,25.25
2023-05-24T12:01:37.675Z,24.81
2023-05-24T12:02:39.756Z,24.79
2023-05-24T12:03:42.503Z,24.95
2023-05-24T12:04:44.822Z,25.11
2023-05-24T12:05:46.980Z,25.18
2023-05-24T12:06:49.074Z,24.69
2023-05-24T12:08:02.746Z,24.61
2023-05-24T12:09:06.054Z,24.76
2023-05-24T12:10:09.213Z,24.92
2023-05-24T12:11:11.870Z,25.18
2023-05-24T12:12:13.992Z,25.53
2023-05-24T12:13:27.344Z,25.70
2023-05-24T12:14:32.349Z,25.86
2023-05-24T12:15:34.426Z,25.90
2023-05-24T12:16:36.849Z,25.75
2023-05-24T12:17:38.840Z,25.78
2023-05-24T12:18:48.473Z,25.39
2023-05-24T12:19:48.647Z,25.26
2023-05-24T12:20:52.185Z,25.34
2023-05-24T12:21:58.018Z,25.21
2023-05-24T12:23:00.355Z,25.21
2023-05-24T12:24:10.498Z,25.73
2023-05-24T12:25:13.769Z,25.83
2023-05-24T12:26:18.100Z,26.01
2023-05-24T12:27:22.059Z,25.79
2023-05-24T12:28:24.134Z,26.02
2023-05-24T12:29:26.188Z,25.36
2023-05-24T12:30:28.901Z,25.62
2023-05-24T12:31:30.972Z,25.55
2023-05-24T12:32:34.389Z,25.41
2023-05-24T12:33:37.351Z,25.47
2023-05-24T12:34:44.195Z,25.52
2023-05-24T12:35:48.119Z,25.40
2023-05-24T12:36:50.166Z,25.33
2023-05-24T12:38:00.700Z,25.21
2023-05-24T12:39:17.922Z,25.18
2023-05-24T12:40:21.442Z,25.19
2023-05-24T12:41:23.853Z,25.41
2023-05-24T12:42:25.884Z,25.62
2023-05-24T12:43:28.581Z,25.42
2023-05-24T12:44:35.071Z,25.09
2023-05-24T12:45:37.011Z,24.85
2023-05-24T12:46:39.122Z,24.82
2023-05-24T12:47:41.942Z,24.94
2023-05-24T12:48:43.991Z,25.07
2023-05-24T12:49:45.960Z,24.86
2023-05-24T12:50:47.952Z,24.86
2023-05-24T12:51:50.867Z,24.94
2023-05-24T12:52:53.844Z,24.82
2023-05-24T12:53:56.205Z,24.88
2023-05-24T12:54:58.287Z,24.74
2023-05-24T12:56:00.195Z,24.58
2023-05-24T12:57:02.392Z,24.49
2023-05-24T12:58:04.439Z,24.40
2023-05-24T12:59:07.088Z,24.57
2023-05-24T13:00:10.820Z,24.49
2023-05-24T13:01:12.869Z,24.58
2023-05-24T13:02:15.112Z,24.46
2023-05-24T13:03:18.994Z,24.58
2023-05-24T13:04:23.252Z,24.47
2023-05-24T13:05:26.836Z,24.56
2023-05-24T13:06:29.210Z,24.55
2023-05-24T13:07:31.090Z,24.49
2023-05-24T13:08:32.998Z,24.46
2023-05-24T13:09:34.861Z,24.65
2023-05-24T13:10:37.094Z,24.67
2023-05-24T13:11:39.389Z,24.79
2023-05-24T13:12:41.486Z,24.81
2023-05-24T13:13:44.474Z,24.86
2023-05-24T13:14:46.384Z,24.82
2023-05-24T13:15:48.287Z,24.77
2023-05-24T13:16:50.486Z,24.67
2023-05-24T13:17:52.903Z,24.62
2023-05-24T13:18:55.415Z,24.54
2023-05-24T13:20:00.959Z,24.44
2023-05-24T13:21:04.160Z,24.41
2023-05-24T13:22:06.085Z,24.42
2023-05-24T13:23:08.800Z,24.47
2023-05-24T13:24:13.822Z,24.51
2023-05-24T13:25:16.729Z,24.52
2023-05-24T13:26:18.730Z,24.54
2023-05-24T13:27:20.670Z,24.60
2023-05-24T13:28:22.669Z,24.61
2023-05-24T13:30:28.762Z,24.67
2023-05-24T13:31:30.676Z,24.79
2023-05-24T13:32:32.692Z,24.79
2023-05-24T13:33:34.771Z,24.89
2023-05-24T13:34:36.786Z,25.16
2023-05-24T13:35:38.767Z,25.34
2023-05-24T13:36:42.155Z,25.42
2023-05-24T13:37:44.160Z,25.43
2023-05-24T13:38:46.020Z,25.41
2023-05-24T13:39:47.928Z,25.26
2023-05-24T13:40:52.306Z,25.21
2023-05-24T13:41:54.364Z,25.25
2023-05-24T13:42:56.793Z,25.19
2023-05-24T13:43:58.677Z,25.11
2023-05-24T13:45:00.563Z,25.23